KROC

Greater Rochester International Airport

Airport
ICAO code
KROC
Summary
ICAO Region
NAM
ICAO Territory
Location

Rochester, New York,

Coordinates
43° 7' 41" N , 77° 39' 58" W
KCC
Metar
Observation
KROC 031954Z 04011KT 10SM FEW180 BKN250 12/03 A3033 RMK AO2 SLP279 T01220033
Station
Rochester, Greater Rochester International Airport
Date/Time
2022-10-03 19:54:00
Wind direction
40°
Wind speed
11 kts
Lowest cloud amount
few clouds
Temperature
12.2°C
Dew point
3.3°C
Humidity
54%
Weather condition
n/a

Description

Greater Rochester International Airport is a public use airport located 6 km southwest of the central business district of Rochester, a city in Monroe County, New York.

Climatology

Humid Continental climate (Köppen climate classification Dfb) - Variable weather patterns and a large seasonal temperature variance. Summers are often warm and humid with frequent thunderstorms and winters can be very cold with frequent snowfall and persistent snow cover.

Runways

Designator Length Width Surface Rops
7/25 1341 43 ASP Yes/Yes
10/28 1676 46 ASP Yes/Yes
4/22 2439 46 ASP Yes/Yes

Airport map

Aerial View

SKYbrary Partners:

Safety knowledge contributed by: